createdAt,value
2018-08-10T00:01:02.576Z,7.50
2018-08-10T00:03:30.663Z,6.37
2018-08-10T00:05:58.719Z,6.53
2018-08-10T00:08:26.772Z,7.77
2018-08-10T00:10:55.076Z,5.67
2018-08-10T00:13:23.368Z,6.03
2018-08-10T00:15:51.696Z,4.53
2018-08-10T00:18:20.003Z,3.83
2018-08-10T00:20:48.308Z,3.73
2018-08-10T00:23:16.620Z,7.67
2018-08-10T00:25:44.923Z,5.13
2018-08-10T00:28:13.226Z,5.53
2018-08-10T00:30:41.586Z,5.87
2018-08-10T00:33:09.916Z,8.53
2018-08-10T00:35:38.217Z,6.07
2018-08-10T00:38:06.529Z,10.30
2018-08-10T00:40:34.837Z,5.10
2018-08-10T00:43:03.277Z,10.83
2018-08-10T00:45:31.598Z,7.63
2018-08-10T00:47:59.888Z,7.30
2018-08-10T00:50:28.214Z,5.70
2018-08-10T00:52:56.572Z,7.63
2018-08-10T00:55:24.888Z,7.87
2018-08-10T00:57:53.176Z,8.10
2018-08-10T01:00:23.200Z,5.90
2018-08-10T01:02:52.319Z,8.17
2018-08-10T01:05:20.621Z,5.90
2018-08-10T01:07:48.923Z,4.37
2018-08-10T01:10:18.796Z,6.23
2018-08-10T01:12:47.088Z,5.00
2018-08-10T01:15:16.581Z,4.27
2018-08-10T01:17:45.405Z,4.00
2018-08-10T01:20:16.835Z,3.30
2018-08-10T01:22:50.672Z,4.37
2018-08-10T01:25:20.272Z,5.80
2018-08-10T01:27:54.154Z,5.93
2018-08-10T01:30:22.480Z,8.17
2018-08-10T01:32:51.504Z,5.43
2018-08-10T01:35:19.888Z,6.87
2018-08-10T01:37:48.220Z,5.47
2018-08-10T01:40:17.157Z,6.73
2018-08-10T01:42:45.485Z,8.37
2018-08-10T01:45:13.795Z,6.03
2018-08-10T01:47:42.140Z,4.67
2018-08-10T01:50:10.578Z,4.97
2018-08-10T01:52:39.685Z,4.47
2018-08-10T01:55:08.678Z,9.13
2018-08-10T01:57:37.882Z,4.33
2018-08-10T02:00:06.595Z,4.57
2018-08-10T02:02:35.223Z,4.90
2018-08-10T02:05:03.554Z,5.93
2018-08-10T02:07:35.775Z,6.60
2018-08-10T02:10:10.811Z,8.77
2018-08-10T02:12:39.803Z,6.03
2018-08-10T02:15:10.219Z,7.00
2018-08-10T02:17:39.031Z,6.30
2018-08-10T02:20:08.927Z,7.40
2018-08-10T02:22:37.641Z,11.07
2018-08-10T02:25:07.423Z,3.60
2018-08-10T02:27:35.772Z,4.03
2018-08-10T02:30:05.419Z,7.57
2018-08-10T02:32:33.725Z,5.17
2018-08-10T02:35:02.046Z,4.30
2018-08-10T02:37:30.340Z,6.97
2018-08-10T02:39:58.655Z,4.37
2018-08-10T02:42:26.957Z,6.33
2018-08-10T02:44:55.247Z,5.77
2018-08-10T02:47:24.065Z,6.40
2018-08-10T02:49:54.195Z,5.77
2018-08-10T02:52:23.075Z,5.60
2018-08-10T02:54:51.679Z,6.47
2018-08-10T02:57:20.081Z,4.93
2018-08-10T02:59:48.387Z,6.90
2018-08-10T03:02:17.229Z,6.17
2018-08-10T03:04:45.539Z,6.27
2018-08-10T03:07:14.179Z,9.43
2018-08-10T03:09:42.799Z,10.57
2018-08-10T03:12:12.153Z,4.77
2018-08-10T03:14:40.956Z,7.20
2018-08-10T03:17:09.540Z,5.57
2018-08-10T03:19:38.020Z,4.03
2018-08-10T03:22:06.946Z,5.93
2018-08-10T03:24:35.641Z,11.77
2018-08-10T03:27:04.281Z,9.23
2018-08-10T03:29:32.780Z,7.23
2018-08-10T03:32:01.086Z,14.17
2018-08-10T03:34:29.393Z,10.50
2018-08-10T03:36:57.731Z,15.03
2018-08-10T03:39:26.041Z,8.83
2018-08-10T03:41:54.347Z,12.60
2018-08-10T03:44:22.650Z,14.07
2018-08-10T03:46:50.971Z,16.67
2018-08-10T03:49:19.298Z,15.37
2018-08-10T03:51:47.596Z,21.43
2018-08-10T03:54:15.927Z,14.27
2018-08-10T03:56:44.303Z,17.20
2018-08-10T03:59:12.610Z,12.93
2018-08-10T04:01:40.939Z,11.63
2018-08-10T04:04:09.256Z,16.70
2018-08-10T04:06:37.571Z,20.17
2018-08-10T04:09:08.388Z,16.37
2018-08-10T04:11:36.704Z,20.10
2018-08-10T04:14:05.069Z,21.57
2018-08-10T04:16:33.491Z,20.27
2018-08-10T04:19:01.781Z,22.60
2018-08-10T04:21:30.089Z,28.47
2018-08-10T04:23:58.401Z,21.37
2018-08-10T04:26:26.739Z,18.33
2018-08-10T04:28:55.048Z,17.07
2018-08-10T04:31:23.347Z,17.33
2018-08-10T04:33:51.856Z,26.27
2018-08-10T04:36:20.155Z,27.23
2018-08-10T04:38:48.474Z,23.07
2018-08-10T04:41:16.780Z,23.50
2018-08-10T04:43:45.261Z,19.30
2018-08-10T04:46:13.751Z,16.60
2018-08-10T04:48:42.094Z,22.93
2018-08-10T04:51:10.387Z,23.50
2018-08-10T04:53:38.681Z,25.67
2018-08-10T04:56:07.032Z,29.10
2018-08-10T04:58:35.384Z,30.77
2018-08-10T05:01:03.727Z,33.13
2018-08-10T05:03:32.172Z,24.57
2018-08-10T05:06:00.483Z,23.50
2018-08-10T05:08:28.802Z,29.33
2018-08-10T05:10:57.119Z,28.40
2018-08-10T05:13:25.414Z,27.93
2018-08-10T05:15:53.725Z,25.20
2018-08-10T05:18:22.043Z,24.33
2018-08-10T05:20:50.345Z,32.57
2018-08-10T05:23:18.656Z,33.47
2018-08-10T05:25:47.022Z,35.27
2018-08-10T05:28:15.287Z,34.57
2018-08-10T05:30:43.438Z,38.03
2018-08-10T05:33:11.494Z,35.40
2018-08-10T05:35:39.794Z,40.90
2018-08-10T05:38:08.363Z,36.83
2018-08-10T05:40:36.415Z,38.13
2018-08-10T05:43:04.518Z,39.10
2018-08-10T05:45:32.812Z,41.17
2018-08-10T05:48:01.158Z,35.03
2018-08-10T05:50:29.176Z,38.50
2018-08-10T05:52:57.475Z,41.03
2018-08-10T05:55:25.816Z,36.47
2018-08-10T05:57:54.123Z,28.63
2018-08-10T06:00:22.456Z,25.90
2018-08-10T06:02:50.751Z,22.17
2018-08-10T06:05:19.087Z,20.53
2018-08-10T06:07:47.391Z,15.77
2018-08-10T06:10:15.727Z,17.87
2018-08-10T06:12:44.031Z,12.07
2018-08-10T06:15:12.330Z,12.87
2018-08-10T06:17:41.094Z,21.73
2018-08-10T06:20:10.576Z,16.73
2018-08-10T06:22:38.871Z,10.53
2018-08-10T06:25:07.390Z,8.27
2018-08-10T06:27:35.656Z,11.00
2018-08-10T06:30:05.496Z,10.33
2018-08-10T06:32:33.788Z,7.93
2018-08-10T06:35:02.092Z,6.93
2018-08-10T06:37:30.391Z,8.53
2018-08-10T06:39:58.734Z,9.03
2018-08-10T06:42:27.095Z,13.17
2018-08-10T06:44:55.480Z,9.80
2018-08-10T06:47:23.703Z,9.63
2018-08-10T06:49:52.004Z,12.60
2018-08-10T06:52:20.431Z,12.83
2018-08-10T06:54:48.730Z,14.67
2018-08-10T06:57:17.074Z,12.80
2018-08-10T06:59:45.369Z,11.07
2018-08-10T07:02:13.702Z,13.27
2018-08-10T07:04:42.014Z,14.10
2018-08-10T07:07:10.366Z,11.03
2018-08-10T07:09:38.670Z,14.20
2018-08-10T07:12:06.972Z,8.13
2018-08-10T07:14:35.279Z,11.17
2018-08-10T07:17:03.577Z,9.57
2018-08-10T07:19:31.657Z,11.33
2018-08-10T07:21:59.951Z,13.97
2018-08-10T07:24:27.989Z,7.87
2018-08-10T07:26:56.173Z,9.63
2018-08-10T07:29:24.196Z,11.13
2018-08-10T07:31:52.255Z,8.90
2018-08-10T07:34:20.628Z,5.77
2018-08-10T07:36:49.006Z,10.90
2018-08-10T07:39:17.039Z,11.53
2018-08-10T07:41:45.096Z,8.97
2018-08-10T07:44:13.395Z,9.20
2018-08-10T07:46:41.728Z,10.50
2018-08-10T07:49:10.036Z,6.40
2018-08-10T07:51:38.320Z,4.07
2018-08-10T07:54:06.905Z,8.37
2018-08-10T07:56:35.208Z,4.63
2018-08-10T07:59:03.695Z,5.47
2018-08-10T08:01:34.625Z,9.23
2018-08-10T08:04:02.987Z,7.83
2018-08-10T08:06:31.279Z,4.33
2018-08-10T08:08:59.571Z,5.00
2018-08-10T08:11:27.876Z,4.20
2018-08-10T08:13:56.167Z,4.57
2018-08-10T08:16:24.465Z,5.13
2018-08-10T08:18:52.960Z,4.00
2018-08-10T08:21:21.277Z,5.83
2018-08-10T08:23:49.568Z,6.27
2018-08-10T08:26:17.896Z,3.90
2018-08-10T08:28:46.244Z,7.43
2018-08-10T08:31:14.544Z,7.67
2018-08-10T08:33:54.316Z,6.70
2018-08-10T08:36:22.612Z,5.43
2018-08-10T08:41:07.256Z,8.90
2018-08-10T08:45:58.358Z,5.20
2018-08-10T08:48:27.365Z,4.60
2018-08-10T08:50:57.171Z,4.97
2018-08-10T08:53:25.587Z,3.43
2018-08-10T08:55:57.347Z,2.67
2018-08-10T08:58:26.128Z,3.70
2018-08-10T09:00:54.428Z,6.03
2018-08-10T09:03:34.850Z,4.50
2018-08-10T09:06:03.627Z,3.60
2018-08-10T09:08:31.919Z,2.00
2018-08-10T09:11:01.362Z,2.73
2018-08-10T09:13:37.750Z,1.40
2018-08-10T09:16:05.803Z,1.40
2018-08-10T09:18:33.822Z,1.70
2018-08-10T09:21:01.935Z,2.83
2018-08-10T09:23:30.027Z,5.17
2018-08-10T09:25:58.074Z,2.33
2018-08-10T09:28:26.170Z,3.17
2018-08-10T09:30:54.190Z,2.83
2018-08-10T09:33:22.286Z,3.43
2018-08-10T09:35:50.356Z,3.13
2018-08-10T09:38:18.379Z,6.67
2018-08-10T09:40:46.408Z,5.30
2018-08-10T09:43:14.467Z,3.13
2018-08-10T09:45:42.502Z,5.83
2018-08-10T09:48:10.599Z,4.93
2018-08-10T09:50:38.622Z,3.73
2018-08-10T09:53:06.677Z,5.63
2018-08-10T09:55:39.423Z,4.67
2018-08-10T09:58:09.556Z,5.63
2018-08-10T10:00:43.256Z,4.53
2018-08-10T10:03:17.375Z,4.17
2018-08-10T10:05:45.975Z,6.43
2018-08-10T10:08:14.475Z,5.87
2018-08-10T10:10:42.526Z,5.67
2018-08-10T10:13:10.582Z,6.40
2018-08-10T10:15:38.599Z,4.90
2018-08-10T10:18:09.553Z,6.67
2018-08-10T10:20:37.631Z,3.87
2018-08-10T10:23:05.891Z,4.93
2018-08-10T10:25:34.007Z,4.97
2018-08-10T10:28:02.075Z,4.73
2018-08-10T10:30:30.158Z,3.37
2018-08-10T10:32:58.207Z,4.20
2018-08-10T10:35:26.291Z,7.27
2018-08-10T10:37:54.315Z,5.97
2018-08-10T10:40:22.451Z,5.03
2018-08-10T10:42:50.475Z,5.80
2018-08-10T10:45:18.520Z,3.47
2018-08-10T10:47:47.600Z,6.13
2018-08-10T10:50:16.258Z,5.80
2018-08-10T10:52:44.342Z,3.77
2018-08-10T10:55:12.720Z,7.53
2018-08-10T10:57:41.402Z,5.97
2018-08-10T11:00:10.903Z,3.90
2018-08-10T11:02:39.279Z,4.63
2018-08-10T11:05:07.968Z,5.27
2018-08-10T11:07:36.654Z,3.20
2018-08-10T11:10:05.515Z,4.17
2018-08-10T11:12:33.607Z,2.70
2018-08-10T11:15:01.639Z,2.87
2018-08-10T11:17:29.679Z,3.27
2018-08-10T11:19:57.731Z,3.00
2018-08-10T11:22:25.816Z,3.73
2018-08-10T11:24:53.879Z,3.37
2018-08-10T11:27:21.952Z,3.80
2018-08-10T11:29:50.243Z,2.83
2018-08-10T11:32:18.699Z,2.77
2018-08-10T11:34:47.060Z,3.10
2018-08-10T11:37:15.385Z,3.80
2018-08-10T11:39:43.726Z,6.33
2018-08-10T11:42:12.023Z,3.40
2018-08-10T11:44:40.320Z,5.00
2018-08-10T11:47:08.617Z,3.57
2018-08-10T11:49:36.933Z,5.20
2018-08-10T11:52:05.319Z,4.20
2018-08-10T11:54:33.620Z,5.23
2018-08-10T11:57:01.927Z,5.73
2018-08-10T11:59:30.263Z,2.87
2018-08-10T12:01:58.553Z,5.70
2018-08-10T12:04:26.954Z,4.17
2018-08-10T12:06:55.277Z,4.57
2018-08-10T12:09:23.692Z,5.60
2018-08-10T12:11:52.003Z,3.30
2018-08-10T12:14:20.343Z,5.10
2018-08-10T12:16:48.654Z,5.67
2018-08-10T12:19:16.956Z,5.13
2018-08-10T12:21:45.282Z,5.33
2018-08-10T12:24:13.595Z,4.43
2018-08-10T12:26:41.892Z,5.40
2018-08-10T12:29:10.219Z,4.83
2018-08-10T12:31:38.524Z,5.60
2018-08-10T12:34:06.828Z,4.83
2018-08-10T12:36:35.127Z,5.90
2018-08-10T12:39:03.560Z,6.53
2018-08-10T12:41:31.859Z,6.23
2018-08-10T12:44:00.185Z,4.40
2018-08-10T12:46:28.509Z,4.23
2018-08-10T12:48:56.795Z,4.37
2018-08-10T12:53:52.531Z,3.23
2018-08-10T12:56:20.844Z,5.57
2018-08-10T12:58:49.151Z,5.97
2018-08-10T13:01:17.460Z,6.33
2018-08-10T13:03:45.773Z,5.27
2018-08-10T13:06:14.070Z,3.47
2018-08-10T13:08:42.372Z,3.73
2018-08-10T13:11:10.743Z,4.63
2018-08-10T13:13:39.039Z,3.67
2018-08-10T13:16:07.385Z,3.87
2018-08-10T13:18:35.797Z,3.60
2018-08-10T13:21:04.060Z,3.03
2018-08-10T13:23:32.375Z,4.20
2018-08-10T13:26:00.667Z,4.43
2018-08-10T13:28:28.971Z,4.20
2018-08-10T13:30:57.305Z,5.03
2018-08-10T13:33:25.632Z,4.67
2018-08-10T13:35:53.923Z,4.37
2018-08-10T13:38:22.236Z,4.50
2018-08-10T13:40:50.738Z,2.47
2018-08-10T13:43:19.007Z,4.83
2018-08-10T13:45:47.295Z,4.63
2018-08-10T13:48:15.662Z,4.37
2018-08-10T13:50:43.962Z,3.67
2018-08-10T13:53:12.302Z,6.07
2018-08-10T13:55:40.615Z,4.97
2018-08-10T13:58:08.915Z,5.00
2018-08-10T14:00:37.294Z,5.43
2018-08-10T14:03:05.584Z,3.70
2018-08-10T14:05:33.904Z,4.93
2018-08-10T14:08:02.261Z,1.97
2018-08-10T14:10:30.582Z,3.63
2018-08-10T14:12:58.908Z,2.07
2018-08-10T14:15:27.221Z,1.77
2018-08-10T14:17:55.527Z,3.87
2018-08-10T14:20:23.831Z,3.67
2018-08-10T14:22:52.155Z,2.07
2018-08-10T14:25:20.583Z,3.00
2018-08-10T14:27:48.961Z,2.20
2018-08-10T14:30:17.258Z,2.77
2018-08-10T14:32:45.568Z,4.70
2018-08-10T14:35:14.432Z,2.23
2018-08-10T14:37:42.761Z,4.40
2018-08-10T14:40:12.582Z,2.77
2018-08-10T14:42:40.914Z,5.13
2018-08-10T14:45:12.355Z,3.63
2018-08-10T14:47:40.655Z,6.67
2018-08-10T14:50:10.990Z,4.23
2018-08-10T14:52:39.310Z,5.87
2018-08-10T14:55:09.544Z,8.83
2018-08-10T14:57:38.002Z,2.20
2018-08-10T15:00:12.744Z,3.77
2018-08-10T15:02:41.047Z,5.53
2018-08-10T15:05:09.376Z,3.20
2018-08-10T15:07:37.667Z,5.37
2018-08-10T15:10:07.604Z,8.60
2018-08-10T15:12:36.176Z,6.73
2018-08-10T15:15:04.652Z,7.40
2018-08-10T15:17:32.962Z,6.33
2018-08-10T15:20:01.524Z,7.17
2018-08-10T15:22:29.949Z,5.67
2018-08-10T15:24:58.323Z,5.40
2018-08-10T15:27:26.784Z,6.23
2018-08-10T15:29:55.100Z,6.07
2018-08-10T15:32:23.459Z,5.43
2018-08-10T15:34:51.749Z,5.43
2018-08-10T15:37:20.029Z,5.37
2018-08-10T15:39:48.323Z,6.83
2018-08-10T15:42:16.605Z,8.17
2018-08-10T15:44:44.894Z,6.13
2018-08-10T15:47:13.253Z,2.80
2018-08-10T15:49:41.559Z,4.77
2018-08-10T15:52:09.904Z,6.57
2018-08-10T15:54:38.248Z,4.70
2018-08-10T15:57:06.557Z,8.97
2018-08-10T15:59:34.843Z,3.50
2018-08-10T16:02:03.367Z,6.27
2018-08-10T16:04:31.668Z,4.40
2018-08-10T16:06:59.958Z,5.23
2018-08-10T16:09:28.276Z,6.17
2018-08-10T16:11:56.610Z,5.77
2018-08-10T16:14:24.905Z,9.27
2018-08-10T16:16:53.207Z,5.63
2018-08-10T16:19:21.507Z,6.73
2018-08-10T16:21:49.811Z,6.53
2018-08-10T16:24:18.124Z,8.07
2018-08-10T16:26:46.496Z,5.07
2018-08-10T16:29:14.811Z,6.43
2018-08-10T16:31:43.224Z,7.27
2018-08-10T16:34:11.602Z,6.30
2018-08-10T16:36:39.911Z,9.73
2018-08-10T16:39:10.080Z,5.53
2018-08-10T16:41:38.378Z,4.87
2018-08-10T16:44:06.700Z,7.70
2018-08-10T16:46:35.060Z,3.97
2018-08-10T16:49:03.473Z,4.93
2018-08-10T16:51:32.005Z,5.27
2018-08-10T16:54:00.564Z,3.07
2018-08-10T16:56:29.167Z,6.07
2018-08-10T16:58:57.735Z,4.93
2018-08-10T17:01:26.049Z,4.97
2018-08-10T17:03:54.362Z,2.80
2018-08-10T17:06:22.703Z,5.43
2018-08-10T17:08:51.020Z,3.20
2018-08-10T17:11:19.467Z,3.70
2018-08-10T17:13:47.805Z,6.80
2018-08-10T17:16:16.158Z,7.93
2018-08-10T17:18:44.450Z,7.67
2018-08-10T17:21:12.744Z,5.17
2018-08-10T17:23:41.043Z,4.80
2018-08-10T17:26:09.389Z,5.43
2018-08-10T17:28:37.715Z,7.03
2018-08-10T17:31:06.036Z,8.33
2018-08-10T17:33:34.375Z,6.63
2018-08-10T17:36:02.934Z,6.50
2018-08-10T17:38:31.306Z,6.07
2018-08-10T17:40:59.370Z,7.47
2018-08-10T17:43:27.414Z,6.83
2018-08-10T17:45:55.624Z,8.40
2018-08-10T17:48:23.948Z,5.43
2018-08-10T17:50:52.001Z,5.00
2018-08-10T17:53:20.024Z,4.27
2018-08-10T17:55:48.133Z,6.50
2018-08-10T18:00:53.776Z,7.07
2018-08-10T18:03:22.331Z,9.73
2018-08-10T18:05:51.184Z,6.47
2018-08-10T18:08:19.475Z,7.80
2018-08-10T18:10:48.027Z,4.27
2018-08-10T18:13:16.198Z,5.43
2018-08-10T18:15:44.501Z,4.43
2018-08-10T18:18:12.561Z,2.90
2018-08-10T18:20:40.598Z,5.60
2018-08-10T18:23:08.701Z,3.87
2018-08-10T18:25:37.415Z,5.80
2018-08-10T18:28:05.490Z,4.80
2018-08-10T18:30:33.611Z,6.47
2018-08-10T18:33:01.924Z,4.40
2018-08-10T18:35:30.223Z,12.20
2018-08-10T18:37:58.951Z,7.97
2018-08-10T18:40:27.561Z,5.53
2018-08-10T18:42:55.922Z,9.13
2018-08-10T18:45:23.973Z,9.13
2018-08-10T18:47:52.341Z,11.43
2018-08-10T18:50:21.060Z,7.23
2018-08-10T18:52:49.325Z,8.77
2018-08-10T18:55:20.078Z,8.27
2018-08-10T18:57:48.728Z,8.03
2018-08-10T19:00:18.848Z,11.10
2018-08-10T19:02:47.562Z,11.27
2018-08-10T19:05:17.028Z,8.70
2018-08-10T19:07:46.594Z,8.90
2018-08-10T19:10:20.359Z,9.43
2018-08-10T19:12:48.850Z,7.57
2018-08-10T19:15:17.768Z,8.77
2018-08-10T19:17:46.809Z,6.83
2018-08-10T19:20:16.093Z,10.43
2018-08-10T19:22:45.117Z,9.83
2018-08-10T19:25:14.568Z,11.60
2018-08-10T19:27:42.959Z,16.67
2018-08-10T19:30:16.067Z,13.70
2018-08-10T19:32:45.384Z,10.10
2018-08-10T19:35:14.260Z,9.97
2018-08-10T19:37:42.935Z,13.73
2018-08-10T19:40:14.178Z,9.73
2018-08-10T19:42:43.795Z,14.60
2018-08-10T19:45:12.975Z,14.07
2018-08-10T19:47:41.690Z,15.23
2018-08-10T19:50:11.359Z,18.70
2018-08-10T19:52:39.766Z,19.57
2018-08-10T19:55:09.783Z,14.80
2018-08-10T19:57:38.397Z,21.47
2018-08-10T20:00:07.988Z,14.37
2018-08-10T20:02:36.300Z,16.67
2018-08-10T20:05:05.935Z,9.80
2018-08-10T20:07:34.599Z,23.03
2018-08-10T20:10:02.908Z,15.03
2018-08-10T20:12:31.211Z,19.03
2018-08-10T20:14:59.825Z,16.80
2018-08-10T20:17:28.194Z,16.57
2018-08-10T20:19:57.021Z,22.63
2018-08-10T20:22:25.336Z,17.93
2018-08-10T20:24:53.863Z,17.97
2018-08-10T20:27:22.199Z,14.93
2018-08-10T20:29:50.507Z,14.20
2018-08-10T20:32:19.160Z,15.70
2018-08-10T20:34:47.468Z,13.80
2018-08-10T20:37:16.131Z,15.10
2018-08-10T20:39:44.518Z,7.57
2018-08-10T20:42:12.908Z,10.83
2018-08-10T20:44:41.359Z,9.20
2018-08-10T20:47:09.959Z,12.77
2018-08-10T20:49:38.261Z,16.00
2018-08-10T20:52:06.700Z,6.33
2018-08-10T20:54:35.016Z,11.67
2018-08-10T20:57:03.361Z,11.33
2018-08-10T20:59:31.694Z,9.83
2018-08-10T21:02:00.013Z,8.30
2018-08-10T21:04:28.394Z,9.03
2018-08-10T21:06:56.647Z,8.00
2018-08-10T21:09:24.953Z,7.60
2018-08-10T21:11:53.333Z,36.33
2018-08-10T21:14:21.631Z,15.77
2018-08-10T21:16:49.974Z,35.03
2018-08-10T21:19:18.294Z,11.00
2018-08-10T21:21:46.627Z,14.60
2018-08-10T21:24:14.916Z,9.53
2018-08-10T21:26:43.296Z,10.40
2018-08-10T21:29:11.556Z,5.50
2018-08-10T21:31:39.910Z,4.97
2018-08-10T21:34:08.215Z,2.50
2018-08-10T21:36:36.515Z,4.90
2018-08-10T21:39:07.560Z,4.00
2018-08-10T21:41:35.875Z,5.60
2018-08-10T21:44:04.194Z,4.33
2018-08-10T21:46:32.583Z,5.30
2018-08-10T21:49:00.884Z,6.57
2018-08-10T21:51:29.336Z,5.00
2018-08-10T21:53:57.649Z,4.43
2018-08-10T21:56:25.940Z,6.73
2018-08-10T21:58:54.311Z,5.10
2018-08-10T22:01:22.715Z,6.73
2018-08-10T22:03:51.015Z,11.17
2018-08-10T22:06:19.420Z,4.27
2018-08-10T22:08:47.707Z,2.80
2018-08-10T22:11:16.028Z,7.73
2018-08-10T22:13:49.639Z,7.00
2018-08-10T22:16:23.449Z,8.33
2018-08-10T22:18:57.160Z,6.27
2018-08-10T22:21:25.463Z,4.97
2018-08-10T22:23:53.774Z,8.63
2018-08-10T22:26:22.063Z,4.30
2018-08-10T22:28:50.365Z,9.33
2018-08-10T22:31:18.668Z,10.00
2018-08-10T22:33:46.976Z,7.40
2018-08-10T22:36:15.298Z,9.17
2018-08-10T22:38:43.640Z,6.67
2018-08-10T22:41:12.996Z,6.93
2018-08-10T22:43:41.303Z,7.97
2018-08-10T22:46:09.595Z,6.27
2018-08-10T22:48:37.898Z,10.00
2018-08-10T22:51:06.203Z,10.30
2018-08-10T22:53:34.500Z,8.43
2018-08-10T22:56:02.815Z,15.87
2018-08-10T22:58:31.127Z,10.60
2018-08-10T23:00:59.431Z,6.43
2018-08-10T23:03:27.755Z,12.47
2018-08-10T23:05:56.043Z,6.57
2018-08-10T23:08:24.446Z,12.40
2018-08-10T23:10:52.701Z,8.63
2018-08-10T23:13:21.057Z,10.40
2018-08-10T23:15:49.343Z,12.17
2018-08-10T23:18:17.738Z,15.70
2018-08-10T23:20:46.053Z,34.97
2018-08-10T23:23:14.355Z,32.47
2018-08-10T23:25:42.705Z,37.83
2018-08-10T23:28:11.028Z,9.03
2018-08-10T23:30:39.478Z,7.40
2018-08-10T23:33:07.651Z,10.47
2018-08-10T23:35:35.949Z,10.93
2018-08-10T23:38:04.265Z,8.47
2018-08-10T23:40:32.565Z,9.57
2018-08-10T23:43:00.859Z,14.60
2018-08-10T23:45:29.151Z,12.33
2018-08-10T23:47:57.463Z,10.90
2018-08-10T23:50:25.774Z,8.47
2018-08-10T23:52:54.069Z,11.00
2018-08-10T23:55:22.412Z,10.67
2018-08-10T23:57:50.722Z,8.33
